createdAt,value
2018-01-30T00:01:49.973Z,1.00
2018-01-30T00:04:17.560Z,0.90
2018-01-30T00:06:45.077Z,1.20
2018-01-30T00:09:12.639Z,0.90
2018-01-30T00:11:40.219Z,0.90
2018-01-30T00:14:07.775Z,0.73
2018-01-30T00:16:35.341Z,0.93
2018-01-30T00:19:02.898Z,1.10
2018-01-30T00:21:30.555Z,1.03
2018-01-30T00:23:58.175Z,1.33
2018-01-30T00:26:25.737Z,0.90
2018-01-30T00:28:53.296Z,1.40
2018-01-30T00:31:20.866Z,1.20
2018-01-30T00:33:48.428Z,0.90
2018-01-30T00:36:16.003Z,1.00
2018-01-30T00:38:43.581Z,1.00
2018-01-30T00:41:11.123Z,1.10
2018-01-30T00:43:38.661Z,1.00
2018-01-30T00:46:06.269Z,1.10
2018-01-30T00:48:33.868Z,1.00
2018-01-30T00:51:02.165Z,1.10
2018-01-30T00:53:29.771Z,0.90
2018-01-30T00:55:57.305Z,1.10
2018-01-30T00:58:24.864Z,1.10
2018-01-30T01:00:52.385Z,1.13
2018-01-30T01:03:20.765Z,1.20
2018-01-30T01:05:49.060Z,1.17
2018-01-30T01:08:16.638Z,1.20
2018-01-30T01:10:44.217Z,1.07
2018-01-30T01:13:11.777Z,1.00
2018-01-30T01:15:40.112Z,1.00
2018-01-30T01:18:07.677Z,0.90
2018-01-30T01:20:35.209Z,0.90
2018-01-30T01:23:03.561Z,1.00
2018-01-30T01:25:31.080Z,0.90
2018-01-30T01:27:58.621Z,1.00
2018-01-30T01:30:26.193Z,0.80
2018-01-30T01:32:53.712Z,0.90
2018-01-30T01:35:21.292Z,1.00
2018-01-30T01:37:48.857Z,1.00
2018-01-30T01:40:17.172Z,1.00
2018-01-30T01:42:44.726Z,1.10
2018-01-30T01:45:12.312Z,1.20
2018-01-30T01:47:39.838Z,0.93
2018-01-30T01:50:07.364Z,1.13
2018-01-30T01:52:34.936Z,1.00
2018-01-30T01:55:02.463Z,1.20
2018-01-30T01:57:30.014Z,0.90
2018-01-30T01:59:57.529Z,1.00
2018-01-30T02:02:25.094Z,0.80
2018-01-30T02:04:52.668Z,1.10
2018-01-30T02:07:20.249Z,1.07
2018-01-30T02:09:47.772Z,0.97
2018-01-30T02:12:15.332Z,1.00
2018-01-30T02:14:42.893Z,0.93
2018-01-30T02:17:10.424Z,1.10
2018-01-30T02:19:38.058Z,1.10
2018-01-30T02:22:05.578Z,1.00
2018-01-30T02:24:33.133Z,1.00
2018-01-30T02:27:00.702Z,1.57
2018-01-30T02:29:28.275Z,0.90
2018-01-30T02:31:55.834Z,0.97
2018-01-30T02:34:23.398Z,1.10
2018-01-30T02:36:50.977Z,0.90
2018-01-30T02:39:18.525Z,1.53
2018-01-30T02:41:46.096Z,0.93
2018-01-30T02:44:13.620Z,1.00
2018-01-30T02:46:41.176Z,2.50
2018-01-30T02:49:08.717Z,0.87
2018-01-30T02:51:36.313Z,0.90
2018-01-30T02:54:03.839Z,1.00
2018-01-30T02:56:31.352Z,0.90
2018-01-30T02:58:58.917Z,1.00
2018-01-30T03:01:26.436Z,1.10
2018-01-30T03:03:53.983Z,0.80
2018-01-30T03:06:21.552Z,1.00
2018-01-30T03:08:49.116Z,0.90
2018-01-30T03:11:16.674Z,0.90
2018-01-30T03:13:44.210Z,0.80
2018-01-30T03:16:12.545Z,1.30
2018-01-30T03:18:40.094Z,1.00
2018-01-30T03:21:07.664Z,1.00
2018-01-30T03:23:35.186Z,0.97
2018-01-30T03:26:02.804Z,0.90
2018-01-30T03:28:30.421Z,1.00
2018-01-30T03:30:57.991Z,1.10
2018-01-30T03:33:25.508Z,1.20
2018-01-30T03:35:53.812Z,0.90
2018-01-30T03:38:21.395Z,0.77
2018-01-30T03:40:48.929Z,1.00
2018-01-30T03:43:16.507Z,0.93
2018-01-30T03:45:44.076Z,1.00
2018-01-30T03:48:11.640Z,1.00
2018-01-30T03:50:39.177Z,1.00
2018-01-30T03:53:06.697Z,1.10
2018-01-30T03:55:34.273Z,1.10
2018-01-30T03:58:02.616Z,0.97
2018-01-30T04:00:30.160Z,0.90
2018-01-30T04:02:57.709Z,1.00
2018-01-30T04:05:25.265Z,1.07
2018-01-30T04:07:52.780Z,1.10
2018-01-30T04:10:20.336Z,1.23
2018-01-30T04:12:47.862Z,1.00
2018-01-30T04:15:15.410Z,1.00
2018-01-30T04:17:42.970Z,0.97
2018-01-30T04:20:10.549Z,0.83
2018-01-30T04:22:38.073Z,1.00
2018-01-30T04:25:05.616Z,0.87
2018-01-30T04:27:33.141Z,1.00
2018-01-30T04:30:00.747Z,1.03
2018-01-30T04:32:28.307Z,1.00
2018-01-30T04:34:55.866Z,0.80
2018-01-30T04:37:23.412Z,1.10
2018-01-30T04:39:51.740Z,1.20
2018-01-30T04:42:19.303Z,1.00
2018-01-30T04:44:46.900Z,1.00
2018-01-30T04:47:14.468Z,0.90
2018-01-30T04:49:42.838Z,1.40
2018-01-30T04:52:10.368Z,1.40
2018-01-30T04:54:37.919Z,1.37
2018-01-30T04:57:05.446Z,1.37
2018-01-30T04:59:33.008Z,1.60
2018-01-30T05:02:00.563Z,1.13
2018-01-30T05:04:28.149Z,1.20
2018-01-30T05:06:55.753Z,1.20
2018-01-30T05:09:23.281Z,1.30
2018-01-30T05:11:50.853Z,1.37
2018-01-30T05:14:18.412Z,1.20
2018-01-30T05:16:45.942Z,1.23
2018-01-30T05:19:13.485Z,1.50
2018-01-30T05:21:41.013Z,1.50
2018-01-30T05:24:08.606Z,1.47
2018-01-30T05:26:36.132Z,1.30
2018-01-30T05:29:03.698Z,1.57
2018-01-30T05:31:31.256Z,1.30
2018-01-30T05:33:58.829Z,1.90
2018-01-30T05:36:26.377Z,1.50
2018-01-30T05:38:53.916Z,2.47
2018-01-30T05:41:21.456Z,1.50
2018-01-30T05:43:49.017Z,1.53
2018-01-30T05:46:16.585Z,1.60
2018-01-30T05:48:44.144Z,1.60
2018-01-30T05:51:11.660Z,1.80
2018-01-30T05:53:39.239Z,2.00
2018-01-30T05:56:06.753Z,1.80
2018-01-30T05:58:34.329Z,1.93
2018-01-30T06:01:01.885Z,2.93
2018-01-30T06:03:32.199Z,2.00
2018-01-30T06:05:59.727Z,2.17
2018-01-30T06:08:27.290Z,2.10
2018-01-30T06:10:54.934Z,2.50
2018-01-30T06:13:22.572Z,2.17
2018-01-30T06:15:50.066Z,2.57
2018-01-30T06:18:17.636Z,2.03
2018-01-30T06:20:45.256Z,2.40
2018-01-30T06:23:12.830Z,2.60
2018-01-30T06:25:40.389Z,3.17
2018-01-30T06:28:08.708Z,2.83
2018-01-30T06:30:36.300Z,2.60
2018-01-30T06:33:04.625Z,2.57
2018-01-30T06:35:32.186Z,3.30
2018-01-30T06:37:59.728Z,2.97
2018-01-30T06:40:27.276Z,4.03
2018-01-30T06:42:54.867Z,3.60
2018-01-30T06:45:22.423Z,3.20
2018-01-30T06:47:49.976Z,3.00
2018-01-30T06:50:17.563Z,3.23
2018-01-30T06:52:45.219Z,3.13
2018-01-30T06:55:12.758Z,3.50
2018-01-30T06:57:40.291Z,4.47
2018-01-30T07:00:07.853Z,4.30
2018-01-30T07:02:35.434Z,4.20
2018-01-30T07:05:03.077Z,4.37
2018-01-30T07:07:30.636Z,3.73
2018-01-30T07:09:58.181Z,4.50
2018-01-30T07:12:25.803Z,4.50
2018-01-30T07:14:53.468Z,5.63
2018-01-30T07:17:20.985Z,5.07
2018-01-30T07:19:48.534Z,4.33
2018-01-30T07:22:16.168Z,3.40
2018-01-30T07:24:44.012Z,3.87
2018-01-30T07:27:11.608Z,3.40
2018-01-30T07:29:39.945Z,3.83
2018-01-30T07:32:07.563Z,3.47
2018-01-30T07:34:35.219Z,3.53
2018-01-30T07:37:02.749Z,3.77
2018-01-30T07:39:30.321Z,3.57
2018-01-30T07:41:58.874Z,4.07
2018-01-30T07:44:26.430Z,4.03
2018-01-30T07:46:54.148Z,3.77
2018-01-30T07:49:21.713Z,4.37
2018-01-30T07:51:50.388Z,4.27
2018-01-30T07:54:18.130Z,4.70
2018-01-30T07:56:45.713Z,4.00
2018-01-30T07:59:13.243Z,4.30
2018-01-30T08:01:40.873Z,5.87
2018-01-30T08:04:08.414Z,5.40
2018-01-30T08:06:36.028Z,5.03
2018-01-30T08:09:03.572Z,6.60
2018-01-30T08:11:31.226Z,5.13
2018-01-30T08:13:58.797Z,4.43
2018-01-30T08:16:26.355Z,4.13
2018-01-30T08:18:54.704Z,4.00
2018-01-30T08:21:22.278Z,4.73
2018-01-30T08:23:49.853Z,4.13
2018-01-30T08:26:17.410Z,4.27
2018-01-30T08:28:45.057Z,4.40
2018-01-30T08:31:13.504Z,5.60
2018-01-30T08:33:41.101Z,6.57
2018-01-30T08:36:08.704Z,6.57
2018-01-30T08:38:36.379Z,5.40
2018-01-30T08:41:04.734Z,4.73
2018-01-30T08:43:32.285Z,4.30
2018-01-30T08:45:59.844Z,5.40
2018-01-30T08:48:27.485Z,6.43
2018-01-30T08:50:55.057Z,6.80
2018-01-30T08:53:22.616Z,6.47
2018-01-30T08:55:50.216Z,5.60
2018-01-30T08:58:17.949Z,4.83
2018-01-30T09:00:45.492Z,5.07
2018-01-30T09:03:13.100Z,5.53
2018-01-30T09:05:41.496Z,6.40
2018-01-30T09:08:09.824Z,5.77
2018-01-30T09:10:37.393Z,5.80
2018-01-30T09:13:05.134Z,5.40
2018-01-30T09:15:32.840Z,5.30
2018-01-30T09:18:01.202Z,5.40
2018-01-30T09:20:28.756Z,4.90
2018-01-30T09:22:56.369Z,5.20
2018-01-30T09:25:23.884Z,5.23
2018-01-30T09:27:51.520Z,6.87
2018-01-30T09:30:19.159Z,5.83
2018-01-30T09:32:47.483Z,6.50
2018-01-30T09:35:15.124Z,5.30
2018-01-30T09:37:42.676Z,6.20
2018-01-30T09:40:10.296Z,6.20
2018-01-30T09:42:37.938Z,7.23
2018-01-30T09:45:05.465Z,6.33
2018-01-30T09:47:32.995Z,6.27
2018-01-30T09:50:01.829Z,6.40
2018-01-30T09:52:29.453Z,6.23
2018-01-30T09:54:57.032Z,6.17
2018-01-30T09:57:24.626Z,5.83
2018-01-30T09:59:52.148Z,7.17
2018-01-30T10:02:19.833Z,5.87
2018-01-30T10:04:47.461Z,6.97
2018-01-30T10:07:15.011Z,6.23
2018-01-30T10:09:42.620Z,6.57
2018-01-30T10:12:10.181Z,7.00
2018-01-30T10:14:37.704Z,8.20
2018-01-30T10:17:05.338Z,6.67
2018-01-30T10:19:32.913Z,5.93
2018-01-30T10:22:01.273Z,7.33
2018-01-30T10:24:28.902Z,7.00
2018-01-30T10:26:56.630Z,7.07
2018-01-30T10:29:24.185Z,6.40
2018-01-30T10:31:51.720Z,6.70
2018-01-30T10:34:19.284Z,6.93
2018-01-30T10:36:46.886Z,7.30
2018-01-30T10:39:14.524Z,7.73
2018-01-30T10:41:42.080Z,7.03
2018-01-30T10:44:09.702Z,6.70
2018-01-30T10:46:37.295Z,6.20
2018-01-30T10:49:04.870Z,6.87
2018-01-30T10:51:32.488Z,6.03
2018-01-30T10:54:00.074Z,6.40
2018-01-30T10:56:28.415Z,5.50
2018-01-30T10:58:56.800Z,5.40
2018-01-30T11:01:24.771Z,4.87
2018-01-30T11:03:53.087Z,4.10
2018-01-30T11:06:21.413Z,4.60
2018-01-30T11:08:48.980Z,4.10
2018-01-30T11:11:16.501Z,4.10
2018-01-30T11:13:44.091Z,4.57
2018-01-30T11:16:11.852Z,4.90
2018-01-30T11:18:39.447Z,4.63
2018-01-30T11:21:07.082Z,4.33
2018-01-30T11:23:34.612Z,4.30
2018-01-30T11:26:02.214Z,5.10
2018-01-30T11:28:29.773Z,4.70
2018-01-30T11:30:57.346Z,4.07
2018-01-30T11:33:25.008Z,4.20
2018-01-30T11:35:52.560Z,4.27
2018-01-30T11:38:20.126Z,4.50
2018-01-30T11:40:47.732Z,3.90
2018-01-30T11:43:15.333Z,4.47
2018-01-30T11:45:43.014Z,4.33
2018-01-30T11:48:10.646Z,4.63
2018-01-30T11:50:38.239Z,3.77
2018-01-30T11:53:05.783Z,4.47
2018-01-30T11:55:33.360Z,4.80
2018-01-30T11:58:00.946Z,4.57
2018-01-30T12:00:28.504Z,5.00
2018-01-30T12:02:56.813Z,5.87
2018-01-30T12:05:24.392Z,5.53
2018-01-30T12:07:52.030Z,5.33
2018-01-30T12:10:19.615Z,5.00
2018-01-30T12:12:47.182Z,5.03
2018-01-30T12:15:14.773Z,4.80
2018-01-30T12:17:42.397Z,4.93
2018-01-30T12:20:09.958Z,4.83
2018-01-30T12:22:37.513Z,5.20
2018-01-30T12:25:05.100Z,5.47
2018-01-30T12:27:32.679Z,5.70
2018-01-30T12:30:00.977Z,4.83
2018-01-30T12:32:28.549Z,4.87
2018-01-30T12:34:56.164Z,4.37
2018-01-30T12:37:23.719Z,4.10
2018-01-30T12:39:51.412Z,4.40
2018-01-30T12:42:19.045Z,4.40
2018-01-30T12:44:46.588Z,4.90
2018-01-30T12:47:14.141Z,5.17
2018-01-30T12:49:41.701Z,4.37
2018-01-30T12:52:09.258Z,4.63
2018-01-30T12:54:38.389Z,5.00
2018-01-30T12:57:06.184Z,4.70
2018-01-30T12:59:35.153Z,5.30
2018-01-30T13:02:03.590Z,5.07
2018-01-30T13:04:31.151Z,5.23
2018-01-30T13:06:58.763Z,4.93
2018-01-30T13:09:26.358Z,5.00
2018-01-30T13:11:54.103Z,5.63
2018-01-30T13:14:21.668Z,5.10
2018-01-30T13:16:49.221Z,4.40
2018-01-30T13:19:16.889Z,9.47
2018-01-30T13:21:44.529Z,5.90
2018-01-30T13:24:12.873Z,6.50
2018-01-30T13:26:40.526Z,11.83
2018-01-30T13:29:09.138Z,6.83
2018-01-30T13:31:37.123Z,4.73
2018-01-30T13:34:04.990Z,4.23
2018-01-30T13:36:32.578Z,5.57
2018-01-30T13:39:00.306Z,4.80
2018-01-30T13:41:28.361Z,4.87
2018-01-30T13:43:55.986Z,4.60
2018-01-30T13:46:23.585Z,5.10
2018-01-30T13:48:51.148Z,5.03
2018-01-30T13:51:18.734Z,4.50
2018-01-30T13:53:46.380Z,4.13
2018-01-30T13:56:14.049Z,4.10
2018-01-30T13:58:41.589Z,3.40
2018-01-30T14:01:09.156Z,4.50
2018-01-30T14:03:36.729Z,7.77
2018-01-30T14:06:04.369Z,7.97
2018-01-30T14:08:35.652Z,4.60
2018-01-30T14:11:03.276Z,4.53
2018-01-30T14:13:32.029Z,3.90
2018-01-30T14:15:59.675Z,4.17
2018-01-30T14:18:27.284Z,4.87
2018-01-30T14:20:54.835Z,4.80
2018-01-30T14:23:22.349Z,5.17
2018-01-30T14:25:50.691Z,4.70
2018-01-30T14:28:18.260Z,5.07
2018-01-30T14:30:45.836Z,5.27
2018-01-30T14:33:13.363Z,4.60
2018-01-30T14:35:41.028Z,5.13
2018-01-30T14:38:08.661Z,5.23
2018-01-30T14:40:36.261Z,5.60
2018-01-30T14:43:03.807Z,5.67
2018-01-30T14:45:31.386Z,5.40
2018-01-30T14:47:58.971Z,5.97
2018-01-30T14:50:27.484Z,5.93
2018-01-30T14:52:55.965Z,6.03
2018-01-30T14:55:23.535Z,5.80
2018-01-30T14:57:51.121Z,5.53
2018-01-30T15:00:18.656Z,5.37
2018-01-30T15:02:46.221Z,5.43
2018-01-30T15:05:13.901Z,5.23
2018-01-30T15:07:41.496Z,5.90
2018-01-30T15:10:10.127Z,6.80
2018-01-30T15:12:37.686Z,5.90
2018-01-30T15:15:05.265Z,5.63
2018-01-30T15:17:32.836Z,5.57
2018-01-30T15:20:00.468Z,5.87
2018-01-30T15:22:37.782Z,5.50
2018-01-30T15:25:05.335Z,5.60
2018-01-30T15:27:32.916Z,5.57
2018-01-30T15:30:00.540Z,8.97
2018-01-30T15:32:29.448Z,7.30
2018-01-30T15:34:57.128Z,5.53
2018-01-30T15:37:24.704Z,6.00
2018-01-30T15:39:53.136Z,5.77
2018-01-30T15:42:20.798Z,6.77
2018-01-30T15:44:48.478Z,6.50
2018-01-30T15:47:16.149Z,5.57
2018-01-30T15:49:43.700Z,5.90
2018-01-30T15:52:11.256Z,6.53
2018-01-30T15:54:38.854Z,6.93
2018-01-30T15:57:06.469Z,6.47
2018-01-30T15:59:34.113Z,6.67
2018-01-30T16:02:01.689Z,5.57
2018-01-30T16:04:29.314Z,6.03
2018-01-30T16:06:56.893Z,5.90
2018-01-30T16:09:24.453Z,5.93
2018-01-30T16:11:52.161Z,6.07
2018-01-30T16:14:19.713Z,5.97
2018-01-30T16:16:47.341Z,6.63
2018-01-30T16:19:15.037Z,6.50
2018-01-30T16:21:42.626Z,7.63
2018-01-30T16:24:10.217Z,7.70
2018-01-30T16:26:38.554Z,7.20
2018-01-30T16:29:06.101Z,6.97
2018-01-30T16:31:33.688Z,7.33
2018-01-30T16:34:01.254Z,7.57
2018-01-30T16:36:28.812Z,6.83
2018-01-30T16:38:56.427Z,7.30
2018-01-30T16:41:23.960Z,7.23
2018-01-30T16:43:51.569Z,7.30
2018-01-30T16:46:19.112Z,8.07
2018-01-30T16:48:46.766Z,7.53
2018-01-30T16:51:14.300Z,8.20
2018-01-30T16:53:42.660Z,7.60
2018-01-30T16:56:11.009Z,7.83
2018-01-30T16:58:38.528Z,9.10
2018-01-30T17:01:06.060Z,10.03
2018-01-30T17:03:34.430Z,10.07
2018-01-30T17:06:02.083Z,9.73
2018-01-30T17:08:29.676Z,9.63
2018-01-30T17:10:58.072Z,9.03
2018-01-30T17:13:25.649Z,9.37
2018-01-30T17:15:53.183Z,9.53
2018-01-30T17:18:20.771Z,9.73
2018-01-30T17:20:48.469Z,9.57
2018-01-30T17:23:16.046Z,9.83
2018-01-30T17:25:43.636Z,10.40
2018-01-30T17:28:11.238Z,10.57
2018-01-30T17:30:39.722Z,10.43
2018-01-30T17:33:07.238Z,8.93
2018-01-30T17:35:35.721Z,9.30
2018-01-30T17:38:03.348Z,9.80
2018-01-30T17:40:31.706Z,11.53
2018-01-30T17:42:59.265Z,11.50
2018-01-30T17:45:26.871Z,9.87
2018-01-30T17:47:54.466Z,11.60
2018-01-30T17:50:22.028Z,11.77
2018-01-30T17:52:49.584Z,9.77
2018-01-30T17:55:17.200Z,10.33
2018-01-30T17:57:45.529Z,10.07
2018-01-30T18:00:13.104Z,10.43
2018-01-30T18:02:40.665Z,9.90
2018-01-30T18:05:08.224Z,11.17
2018-01-30T18:07:35.783Z,11.33
2018-01-30T18:10:03.406Z,10.57
2018-01-30T18:12:31.013Z,10.00
2018-01-30T18:14:58.635Z,10.17
2018-01-30T18:17:26.216Z,10.80
2018-01-30T18:19:53.788Z,11.00
2018-01-30T18:22:21.404Z,10.47
2018-01-30T18:24:49.049Z,8.70
2018-01-30T18:27:17.368Z,9.60
2018-01-30T18:29:44.949Z,9.27
2018-01-30T18:32:12.551Z,8.43
2018-01-30T18:34:40.854Z,9.73
2018-01-30T18:37:08.412Z,12.83
2018-01-30T18:39:35.962Z,10.90
2018-01-30T18:42:03.487Z,12.20
2018-01-30T18:44:31.096Z,10.93
2018-01-30T18:46:58.641Z,10.57
2018-01-30T18:49:26.250Z,10.57
2018-01-30T18:51:53.888Z,9.73
2018-01-30T18:54:21.510Z,9.57
2018-01-30T18:56:49.085Z,13.90
2018-01-30T18:59:16.655Z,10.47
2018-01-30T19:01:44.242Z,10.30
2018-01-30T19:04:11.773Z,10.80
2018-01-30T19:06:39.387Z,10.67
2018-01-30T19:09:07.021Z,11.23
2018-01-30T19:11:34.601Z,10.97
2018-01-30T19:14:02.168Z,9.87
2018-01-30T19:16:29.724Z,10.20
2018-01-30T19:18:57.287Z,10.13
2018-01-30T19:21:24.851Z,10.20
2018-01-30T19:23:52.479Z,10.80
2018-01-30T19:26:20.001Z,11.23
2018-01-30T19:28:47.612Z,11.80
2018-01-30T19:31:15.205Z,13.43
2018-01-30T19:33:42.781Z,13.10
2018-01-30T19:36:11.148Z,14.67
2018-01-30T19:38:38.789Z,15.50
2018-01-30T19:41:06.350Z,12.77
2018-01-30T19:43:34.019Z,10.73
2018-01-30T19:46:01.681Z,11.03
2018-01-30T19:48:29.256Z,12.53
2018-01-30T19:50:56.859Z,14.27
2018-01-30T19:53:24.476Z,14.40
2018-01-30T19:55:52.047Z,14.67
2018-01-30T19:58:20.384Z,14.83
2018-01-30T20:00:47.988Z,12.83
2018-01-30T20:03:15.536Z,12.67
2018-01-30T20:05:43.165Z,11.63
2018-01-30T20:08:10.757Z,11.20
2018-01-30T20:10:38.298Z,12.23
2018-01-30T20:13:05.942Z,11.10
2018-01-30T20:15:33.500Z,11.07
2018-01-30T20:18:01.053Z,10.10
2018-01-30T20:20:28.692Z,11.27
2018-01-30T20:22:56.264Z,11.03
2018-01-30T20:25:23.899Z,11.43
2018-01-30T20:27:51.487Z,11.70
2018-01-30T20:30:19.136Z,11.37
2018-01-30T20:32:46.700Z,10.70
2018-01-30T20:35:14.298Z,11.90
2018-01-30T20:37:41.872Z,11.40
2018-01-30T20:40:09.457Z,11.13
2018-01-30T20:42:37.114Z,11.40
2018-01-30T20:45:04.677Z,11.77
2018-01-30T20:47:32.251Z,13.03
2018-01-30T20:49:59.861Z,12.67
2018-01-30T20:52:27.474Z,11.57
2018-01-30T20:54:55.023Z,13.00
2018-01-30T20:57:23.425Z,11.80
2018-01-30T20:59:51.051Z,11.80
2018-01-30T21:02:18.593Z,10.93
2018-01-30T21:04:46.243Z,10.53
2018-01-30T21:07:13.858Z,10.13
2018-01-30T21:09:41.636Z,11.23
2018-01-30T21:12:09.171Z,10.73
2018-01-30T21:14:36.755Z,10.50
2018-01-30T21:17:04.460Z,12.07
2018-01-30T21:19:31.984Z,12.50
2018-01-30T21:21:59.615Z,12.00
2018-01-30T21:24:27.153Z,11.97
2018-01-30T21:26:54.689Z,11.23
2018-01-30T21:29:22.391Z,11.03
2018-01-30T21:31:50.687Z,11.23
2018-01-30T21:34:18.344Z,10.83
2018-01-30T21:36:46.707Z,11.73
2018-01-30T21:39:14.329Z,11.67
2018-01-30T21:41:41.906Z,11.67
2018-01-30T21:44:09.523Z,11.57
2018-01-30T21:46:37.099Z,12.77
2018-01-30T21:49:04.667Z,12.00
2018-01-30T21:51:32.280Z,12.80
2018-01-30T21:53:59.805Z,12.23
2018-01-30T21:56:27.365Z,12.83
2018-01-30T21:58:54.947Z,13.47
2018-01-30T22:01:22.579Z,13.73
2018-01-30T22:03:50.146Z,14.13
2018-01-30T22:06:17.773Z,13.30
2018-01-30T22:08:45.470Z,13.07
2018-01-30T22:11:13.032Z,11.63
2018-01-30T22:13:40.594Z,10.67
2018-01-30T22:16:08.154Z,10.20
2018-01-30T22:18:35.760Z,10.57
2018-01-30T22:21:03.399Z,9.57
2018-01-30T22:23:30.936Z,10.23
2018-01-30T22:25:58.507Z,10.60
2018-01-30T22:28:26.055Z,10.10
2018-01-30T22:30:53.661Z,11.07
2018-01-30T22:33:21.204Z,9.63
2018-01-30T22:35:48.722Z,10.47
2018-01-30T22:38:16.325Z,9.93
2018-01-30T22:40:43.849Z,10.17
2018-01-30T22:43:11.422Z,9.83
2018-01-30T22:45:39.050Z,10.33
